createdAt,value
2018-07-16T00:01:48.443Z,19.60
2018-07-16T00:04:17.195Z,19.60
2018-07-16T00:06:46.299Z,19.50
2018-07-16T00:09:15.145Z,19.50
2018-07-16T00:11:44.415Z,19.40
2018-07-16T00:14:13.226Z,19.40
2018-07-16T00:16:42.370Z,19.40
2018-07-16T00:19:11.771Z,19.30
2018-07-16T00:21:41.084Z,19.40
2018-07-16T00:24:13.797Z,19.30
2018-07-16T00:26:43.009Z,19.30
2018-07-16T00:29:12.004Z,19.30
2018-07-16T00:31:41.262Z,19.30
2018-07-16T00:34:10.675Z,19.30
2018-07-16T00:36:39.803Z,19.20
2018-07-16T00:39:09.073Z,19.10
2018-07-16T00:41:38.045Z,19.10
2018-07-16T00:44:07.559Z,19.10
2018-07-16T00:46:36.587Z,19.10
2018-07-16T00:49:06.083Z,19.00
2018-07-16T00:54:04.139Z,18.90
2018-07-16T00:56:33.517Z,18.80
2018-07-16T00:59:02.860Z,18.80
2018-07-16T01:01:32.160Z,18.70
2018-07-16T01:04:01.243Z,18.60
2018-07-16T01:06:30.255Z,18.70
2018-07-16T01:08:59.541Z,18.70
2018-07-16T01:11:28.419Z,18.70
2018-07-16T01:13:57.867Z,18.70
2018-07-16T01:16:26.966Z,18.60
2018-07-16T01:18:55.872Z,18.50
2018-07-16T01:21:24.758Z,18.50
2018-07-16T01:23:53.961Z,18.50
2018-07-16T01:26:22.929Z,18.60
2018-07-16T01:28:51.750Z,18.60
2018-07-16T01:31:20.632Z,18.50
2018-07-16T01:33:49.654Z,18.40
2018-07-16T01:36:18.851Z,18.40
2018-07-16T01:38:47.762Z,18.40
2018-07-16T01:41:16.634Z,18.40
2018-07-16T01:43:45.568Z,18.30
2018-07-16T01:48:43.184Z,18.30
2018-07-16T01:51:12.071Z,18.30
2018-07-16T01:53:41.100Z,18.30
2018-07-16T01:56:10.093Z,18.30
2018-07-16T01:58:39.189Z,18.20
2018-07-16T02:01:08.868Z,18.20
2018-07-16T02:03:38.330Z,18.10
2018-07-16T02:06:07.629Z,18.10
2018-07-16T02:08:36.571Z,18.10
2018-07-16T02:11:05.842Z,18.00
2018-07-16T02:13:34.704Z,17.90
2018-07-16T02:16:03.653Z,17.90
2018-07-16T02:18:33.123Z,17.90
2018-07-16T02:21:02.044Z,17.90
2018-07-16T02:23:31.367Z,17.80
2018-07-16T02:26:00.740Z,17.80
2018-07-16T02:28:29.931Z,17.80
2018-07-16T02:30:59.290Z,17.70
2018-07-16T02:33:28.412Z,17.70
2018-07-16T02:35:57.955Z,17.60
2018-07-16T02:38:27.253Z,17.60
2018-07-16T02:40:56.745Z,17.70
2018-07-16T02:45:54.378Z,17.60
2018-07-16T02:48:23.544Z,17.50
2018-07-16T02:50:52.426Z,17.60
2018-07-16T02:53:21.478Z,17.50
2018-07-16T02:55:50.515Z,17.50
2018-07-16T03:00:48.744Z,17.60
2018-07-16T03:05:46.252Z,17.50
2018-07-16T03:08:16.353Z,17.50
2018-07-16T03:10:45.238Z,17.60
2018-07-16T03:13:14.214Z,17.50
2018-07-16T03:15:43.282Z,17.50
2018-07-16T03:18:12.281Z,17.50
2018-07-16T03:20:41.488Z,17.50
2018-07-16T03:23:10.814Z,17.50
2018-07-16T03:25:41.320Z,17.40
2018-07-16T03:28:10.346Z,17.20
2018-07-16T03:30:39.388Z,17.20
2018-07-16T03:33:08.421Z,17.20
2018-07-16T03:35:39.428Z,17.20
2018-07-16T03:38:08.307Z,17.30
2018-07-16T03:40:37.316Z,17.20
2018-07-16T03:43:06.615Z,17.00
2018-07-16T03:45:36.243Z,17.00
2018-07-16T03:48:05.449Z,17.00
2018-07-16T03:50:34.699Z,17.00
2018-07-16T03:53:04.435Z,16.90
2018-07-16T03:55:33.511Z,16.90
2018-07-16T03:58:02.677Z,16.80
2018-07-16T04:00:34.021Z,16.80
2018-07-16T04:03:03.170Z,16.90
2018-07-16T04:05:31.998Z,16.90
2018-07-16T04:08:03.630Z,16.90
2018-07-16T04:10:33.778Z,16.90
2018-07-16T04:13:02.640Z,16.80
2018-07-16T04:15:32.255Z,16.80
2018-07-16T04:18:01.928Z,16.80
2018-07-16T04:20:31.311Z,16.90
2018-07-16T04:23:00.455Z,16.90
2018-07-16T04:25:29.635Z,16.90
2018-07-16T04:27:58.648Z,16.80
2018-07-16T04:30:27.559Z,16.80
2018-07-16T04:32:57.056Z,16.80
2018-07-16T04:35:26.090Z,16.80
2018-07-16T04:37:55.049Z,16.80
2018-07-16T04:40:23.908Z,16.80
2018-07-16T04:42:53.205Z,16.90
2018-07-16T04:45:22.364Z,16.80
2018-07-16T04:47:51.485Z,16.90
2018-07-16T04:50:20.641Z,17.00
2018-07-16T04:52:49.506Z,17.00
2018-07-16T04:55:18.564Z,17.10
2018-07-16T04:57:47.564Z,17.20
2018-07-16T05:00:16.684Z,17.30
2018-07-16T05:02:47.262Z,17.30
2018-07-16T05:05:16.183Z,17.40
2018-07-16T05:07:45.113Z,17.40
2018-07-16T05:10:14.133Z,17.40
2018-07-16T05:12:45.044Z,17.50
2018-07-16T05:15:14.331Z,17.60
2018-07-16T05:17:43.656Z,17.60
2018-07-16T05:20:12.509Z,17.70
2018-07-16T05:22:41.349Z,17.90
2018-07-16T05:25:10.251Z,17.90
2018-07-16T05:27:39.565Z,18.00
2018-07-16T05:30:10.738Z,18.10
2018-07-16T05:32:39.708Z,18.20
2018-07-16T05:35:08.404Z,18.30
2018-07-16T05:37:37.618Z,18.40
2018-07-16T05:40:06.874Z,18.50
2018-07-16T05:42:36.253Z,18.70
2018-07-16T05:45:05.190Z,18.90
2018-07-16T05:50:02.959Z,19.00
2018-07-16T05:52:32.162Z,19.30
2018-07-16T05:55:01.122Z,19.40
2018-07-16T05:57:31.546Z,19.50
2018-07-16T06:00:00.756Z,19.70
2018-07-16T06:02:29.508Z,19.80
2018-07-16T06:04:58.671Z,19.90
2018-07-16T06:07:27.675Z,20.10
2018-07-16T06:09:57.130Z,20.30
2018-07-16T06:12:25.856Z,20.50
2018-07-16T06:14:55.050Z,20.60
2018-07-16T06:17:24.657Z,20.70
2018-07-16T06:19:53.816Z,20.80
2018-07-16T06:22:22.737Z,21.00
2018-07-16T06:27:21.259Z,21.30
2018-07-16T06:29:50.838Z,21.60
2018-07-16T06:32:20.383Z,22.40
2018-07-16T06:34:49.400Z,23.30
2018-07-16T06:37:18.666Z,23.70
2018-07-16T06:39:47.608Z,24.50
2018-07-16T06:42:16.438Z,25.50
2018-07-16T06:44:45.586Z,26.20
2018-07-16T06:47:14.627Z,26.70
2018-07-16T06:49:43.515Z,27.40
2018-07-16T06:52:12.594Z,29.10
2018-07-16T06:54:41.612Z,29.90
2018-07-16T06:57:11.115Z,31.80
2018-07-16T06:59:40.041Z,31.70
2018-07-16T07:02:09.118Z,32.80
2018-07-16T07:04:38.039Z,30.00
2018-07-16T07:07:07.237Z,31.00
2018-07-16T07:09:36.596Z,30.00
2018-07-16T07:12:05.544Z,30.70
2018-07-16T07:14:34.510Z,29.70
2018-07-16T07:19:32.439Z,29.10
2018-07-16T07:22:01.375Z,27.80
2018-07-16T07:24:30.556Z,27.10
2018-07-16T07:26:59.681Z,26.70
2018-07-16T07:29:28.412Z,27.10
2018-07-16T07:31:57.384Z,28.20
2018-07-16T07:34:26.178Z,28.70
2018-07-16T07:36:55.097Z,29.10
2018-07-16T07:39:23.873Z,28.50
2018-07-16T07:41:52.641Z,29.80
2018-07-16T07:44:21.546Z,30.20
2018-07-16T07:49:19.744Z,29.00
2018-07-16T07:51:48.616Z,28.50
2018-07-16T07:54:19.461Z,28.60
2018-07-16T07:56:48.148Z,28.40
2018-07-16T07:59:17.157Z,28.10
2018-07-16T08:04:15.109Z,29.50
2018-07-16T08:06:48.144Z,30.00
2018-07-16T08:09:17.366Z,31.00
2018-07-16T08:11:46.826Z,30.50
2018-07-16T08:14:16.433Z,30.20
2018-07-16T08:16:46.025Z,29.10
2018-07-16T08:19:17.257Z,29.20
2018-07-16T08:21:47.585Z,29.40
2018-07-16T08:24:17.165Z,29.10
2018-07-16T08:26:46.215Z,28.70
2018-07-16T08:29:15.401Z,29.30
2018-07-16T08:31:44.739Z,29.90
2018-07-16T08:34:14.704Z,29.30
2018-07-16T08:36:45.576Z,28.00
2018-07-16T08:39:14.850Z,29.30
2018-07-16T08:41:43.877Z,29.60
2018-07-16T08:44:13.212Z,30.30
2018-07-16T08:46:42.391Z,29.60
2018-07-16T08:49:11.810Z,29.90
2018-07-16T08:51:41.822Z,30.50
2018-07-16T08:54:10.922Z,29.00
2018-07-16T08:56:39.926Z,29.40
2018-07-16T08:59:09.320Z,30.30
2018-07-16T09:01:38.589Z,29.80
2018-07-16T09:04:08.657Z,29.60
2018-07-16T09:06:38.175Z,29.70
2018-07-16T09:09:07.487Z,29.90
2018-07-16T09:11:37.161Z,30.00
2018-07-16T09:14:07.172Z,30.40
2018-07-16T09:16:37.295Z,30.30
2018-07-16T09:19:06.364Z,30.60
2018-07-16T09:21:35.967Z,31.20
2018-07-16T09:24:05.770Z,31.20
2018-07-16T09:26:35.143Z,30.40
2018-07-16T09:29:05.823Z,29.60
2018-07-16T09:31:34.977Z,29.80
2018-07-16T09:34:04.253Z,30.10
2018-07-16T09:36:33.346Z,30.30
2018-07-16T09:39:02.518Z,30.00
2018-07-16T09:41:34.349Z,30.00
2018-07-16T09:44:04.573Z,29.80
2018-07-16T09:46:34.954Z,30.70
2018-07-16T09:49:04.375Z,29.50
2018-07-16T09:51:33.365Z,30.60
2018-07-16T09:54:02.497Z,31.10
2018-07-16T09:56:31.462Z,31.30
2018-07-16T09:59:00.449Z,31.40
2018-07-16T10:01:34.562Z,31.40
2018-07-16T10:04:04.022Z,30.80
2018-07-16T10:06:33.249Z,32.10
2018-07-16T10:09:02.626Z,31.70
2018-07-16T10:11:31.912Z,31.90
2018-07-16T10:14:01.623Z,32.60
2018-07-16T10:16:30.838Z,32.40
2018-07-16T10:19:00.109Z,32.10
2018-07-16T10:21:29.729Z,32.30
2018-07-16T10:23:59.084Z,31.70
2018-07-16T10:26:27.830Z,31.90
2018-07-16T10:28:56.670Z,32.00
2018-07-16T10:31:25.547Z,32.20
2018-07-16T10:33:54.767Z,32.10
2018-07-16T10:36:23.541Z,32.50
2018-07-16T10:38:54.889Z,32.10
2018-07-16T10:41:23.730Z,31.50
2018-07-16T10:43:52.679Z,32.50
2018-07-16T10:46:21.608Z,33.40
2018-07-16T10:48:51.619Z,32.90
2018-07-16T10:51:21.791Z,32.80
2018-07-16T10:53:50.682Z,32.20
2018-07-16T10:56:19.479Z,33.00
2018-07-16T10:58:48.800Z,32.20
2018-07-16T11:01:17.635Z,33.40
2018-07-16T11:03:46.372Z,32.80
2018-07-16T11:06:20.595Z,32.70
2018-07-16T11:08:50.265Z,32.70
2018-07-16T11:11:19.136Z,33.30
2018-07-16T11:13:48.911Z,33.40
2018-07-16T11:16:18.075Z,33.70
2018-07-16T11:18:47.499Z,33.80
2018-07-16T11:21:16.131Z,33.40
2018-07-16T11:23:45.216Z,34.30
2018-07-16T11:26:14.571Z,33.70
2018-07-16T11:28:43.459Z,33.10
2018-07-16T11:31:12.395Z,33.30
2018-07-16T11:33:41.455Z,33.80
2018-07-16T11:36:10.686Z,34.40
2018-07-16T11:38:40.181Z,34.50
2018-07-16T11:41:09.409Z,34.10
2018-07-16T11:43:38.198Z,32.80
2018-07-16T11:46:07.196Z,32.30
2018-07-16T11:48:36.428Z,32.00
2018-07-16T11:51:05.678Z,32.20
2018-07-16T11:53:34.971Z,33.10
2018-07-16T11:58:37.814Z,33.20
2018-07-16T12:01:06.936Z,33.50
2018-07-16T12:03:36.996Z,33.20
2018-07-16T12:06:11.146Z,33.00
2018-07-16T12:08:40.326Z,33.10
2018-07-16T12:11:09.358Z,33.50
2018-07-16T12:13:38.595Z,32.70
2018-07-16T12:16:07.419Z,32.60
2018-07-16T12:18:36.745Z,32.80
2018-07-16T12:23:36.246Z,33.00
2018-07-16T12:26:05.312Z,33.30
2018-07-16T12:28:39.205Z,33.00
2018-07-16T12:31:10.008Z,33.10
2018-07-16T12:33:39.055Z,32.80
2018-07-16T12:36:07.770Z,33.70
2018-07-16T12:38:37.199Z,34.30
2018-07-16T12:41:06.459Z,34.80
2018-07-16T12:43:35.647Z,34.40
2018-07-16T12:46:05.747Z,33.50
2018-07-16T12:48:35.231Z,33.40
2018-07-16T12:51:04.360Z,33.50
2018-07-16T12:53:33.142Z,33.00
2018-07-16T12:56:01.888Z,32.50
2018-07-16T12:58:30.835Z,32.50
2018-07-16T13:03:28.923Z,31.50
2018-07-16T13:05:57.956Z,31.30
2018-07-16T13:08:27.208Z,31.40
2018-07-16T13:10:56.812Z,32.10
2018-07-16T13:13:25.748Z,32.40
2018-07-16T13:15:54.695Z,32.00
2018-07-16T13:18:23.860Z,31.70
2018-07-16T13:20:52.840Z,31.90
2018-07-16T13:23:21.437Z,32.50
2018-07-16T13:25:50.464Z,32.90
2018-07-16T13:28:19.084Z,33.10
2018-07-16T13:33:16.700Z,31.70
2018-07-16T13:35:45.535Z,31.50
2018-07-16T13:38:14.399Z,31.40
2018-07-16T13:40:43.502Z,31.50
2018-07-16T13:43:12.360Z,31.00
2018-07-16T13:45:41.362Z,31.50
2018-07-16T13:48:14.346Z,31.30
2018-07-16T13:50:43.153Z,32.20
2018-07-16T13:53:12.018Z,32.10
2018-07-16T13:55:40.857Z,33.00
2018-07-16T13:58:09.878Z,33.30
2018-07-16T14:00:38.858Z,32.70
2018-07-16T14:03:08.054Z,32.70
2018-07-16T14:08:05.448Z,33.30
2018-07-16T14:10:34.811Z,33.10
2018-07-16T14:13:03.834Z,32.60
2018-07-16T14:15:33.050Z,32.60
2018-07-16T14:18:02.093Z,32.50
2018-07-16T14:20:31.564Z,32.60
2018-07-16T14:23:00.356Z,33.40
2018-07-16T14:25:29.342Z,32.80
2018-07-16T14:27:58.613Z,32.30
2018-07-16T14:30:27.507Z,32.50
2018-07-16T14:32:56.595Z,31.90
2018-07-16T14:35:25.518Z,31.70
2018-07-16T14:37:54.863Z,32.00
2018-07-16T14:40:24.104Z,32.70
2018-07-16T14:42:53.201Z,33.30
2018-07-16T14:45:29.423Z,32.90
2018-07-16T14:47:59.062Z,31.80
2018-07-16T14:50:27.844Z,31.90
2018-07-16T14:52:56.815Z,31.90
2018-07-16T14:55:25.786Z,32.10
2018-07-16T14:57:54.779Z,32.00
2018-07-16T15:00:23.492Z,31.90
2018-07-16T15:02:52.244Z,31.30
2018-07-16T15:05:21.523Z,31.60
2018-07-16T15:07:50.314Z,31.80
2018-07-16T15:10:19.087Z,32.20
2018-07-16T15:12:48.031Z,32.50
2018-07-16T15:17:45.374Z,32.30
2018-07-16T15:20:14.156Z,32.40
2018-07-16T15:22:42.935Z,32.30
2018-07-16T15:25:12.087Z,32.60
2018-07-16T15:27:40.996Z,32.80
2018-07-16T15:30:09.936Z,32.30
2018-07-16T15:32:38.950Z,32.20
2018-07-16T15:35:07.444Z,32.30
2018-07-16T15:37:36.033Z,32.60
2018-07-16T15:40:04.591Z,32.60
2018-07-16T15:42:33.214Z,32.80
2018-07-16T15:45:02.169Z,32.60
2018-07-16T15:47:30.767Z,32.70
2018-07-16T15:50:01.627Z,32.40
2018-07-16T15:52:30.117Z,31.80
2018-07-16T15:54:59.688Z,32.00
2018-07-16T15:57:28.351Z,32.10
2018-07-16T15:59:57.139Z,31.80
2018-07-16T16:02:25.820Z,31.90
2018-07-16T16:04:54.986Z,31.70
2018-07-16T16:07:31.059Z,31.70
2018-07-16T16:10:00.064Z,31.90
2018-07-16T16:12:29.216Z,32.20
2018-07-16T16:14:57.911Z,32.10
2018-07-16T16:17:26.599Z,31.80
2018-07-16T16:19:55.285Z,32.00
2018-07-16T16:22:25.072Z,31.60
2018-07-16T16:24:53.628Z,31.30
2018-07-16T16:27:24.250Z,31.90
2018-07-16T16:29:53.905Z,31.80
2018-07-16T16:32:22.459Z,31.90
2018-07-16T16:34:57.543Z,32.10
2018-07-16T16:37:26.043Z,31.80
2018-07-16T16:39:54.593Z,31.60
2018-07-16T16:42:23.220Z,31.30
2018-07-16T16:44:51.860Z,31.70
2018-07-16T16:47:23.558Z,31.40
2018-07-16T16:49:52.390Z,31.30
2018-07-16T16:52:21.050Z,31.20
2018-07-16T16:54:49.703Z,31.50
2018-07-16T16:57:19.336Z,31.00
2018-07-16T16:59:48.052Z,31.10
2018-07-16T17:02:16.585Z,31.00
2018-07-16T17:04:45.077Z,30.80
2018-07-16T17:07:13.629Z,30.80
2018-07-16T17:09:42.521Z,30.20
2018-07-16T17:12:11.484Z,30.50
2018-07-16T17:14:40.325Z,30.30
2018-07-16T17:17:10.646Z,30.10
2018-07-16T17:19:44.274Z,30.00
2018-07-16T17:22:13.616Z,29.90
2018-07-16T17:24:42.389Z,29.70
2018-07-16T17:27:11.719Z,29.50
2018-07-16T17:29:40.829Z,29.30
2018-07-16T17:32:09.810Z,29.10
2018-07-16T17:34:38.701Z,29.20
2018-07-16T17:37:07.691Z,29.20
2018-07-16T17:39:39.682Z,29.00
2018-07-16T17:42:10.662Z,29.10
2018-07-16T17:44:39.708Z,28.90
2018-07-16T17:47:08.764Z,28.90
2018-07-16T17:49:38.165Z,28.80
2018-07-16T17:52:09.296Z,28.80
2018-07-16T17:54:38.573Z,28.80
2018-07-16T17:57:08.448Z,28.70
2018-07-16T17:59:38.253Z,28.70
2018-07-16T18:02:07.728Z,28.70
2018-07-16T18:04:36.684Z,28.80
2018-07-16T18:07:06.350Z,28.60
2018-07-16T18:09:35.289Z,28.70
2018-07-16T18:12:06.245Z,28.70
2018-07-16T18:14:35.321Z,28.50
2018-07-16T18:17:04.155Z,28.50
2018-07-16T18:22:09.362Z,28.40
2018-07-16T18:24:38.307Z,28.30
2018-07-16T18:27:08.717Z,28.20
2018-07-16T18:29:37.727Z,28.30
2018-07-16T18:32:07.605Z,28.40
2018-07-16T18:34:37.340Z,28.20
2018-07-16T18:37:06.082Z,28.10
2018-07-16T18:39:35.261Z,28.10
2018-07-16T18:42:04.594Z,28.30
2018-07-16T18:44:33.576Z,28.10
2018-07-16T18:49:31.400Z,28.00
2018-07-16T18:52:00.523Z,27.90
2018-07-16T18:56:59.149Z,27.70
2018-07-16T18:59:28.231Z,27.50
2018-07-16T19:01:57.493Z,27.40
2018-07-16T19:04:26.431Z,27.40
2018-07-16T19:07:03.281Z,27.30
2018-07-16T19:09:32.605Z,27.30
2018-07-16T19:12:02.626Z,27.20
2018-07-16T19:14:31.997Z,27.10
2018-07-16T19:17:01.601Z,27.10
2018-07-16T19:19:30.873Z,27.00
2018-07-16T19:22:00.130Z,26.80
2018-07-16T19:24:30.392Z,26.70
2018-07-16T19:27:03.529Z,26.70
2018-07-16T19:29:32.755Z,26.60
2018-07-16T19:32:03.980Z,26.60
2018-07-16T19:34:35.387Z,26.50
2018-07-16T19:37:04.859Z,26.40
2018-07-16T19:39:34.162Z,26.30
2018-07-16T19:42:03.869Z,26.20
2018-07-16T19:44:33.064Z,26.10
2018-07-16T19:47:12.119Z,26.00
2018-07-16T19:49:41.374Z,26.10
2018-07-16T19:54:48.988Z,26.10
2018-07-16T19:57:19.042Z,26.00
2018-07-16T19:59:48.176Z,25.90
2018-07-16T20:02:17.273Z,25.60
2018-07-16T20:04:46.155Z,25.50
2018-07-16T20:07:15.224Z,25.10
2018-07-16T20:09:45.509Z,24.90
2018-07-16T20:12:27.389Z,24.90
2018-07-16T20:14:57.684Z,24.70
2018-07-16T20:17:30.252Z,24.60
2018-07-16T20:20:00.562Z,24.50
2018-07-16T20:22:31.514Z,24.40
2018-07-16T20:25:16.735Z,24.40
2018-07-16T20:27:51.838Z,24.20
2018-07-16T20:30:26.426Z,23.90
2018-07-16T20:32:57.885Z,23.80
2018-07-16T20:35:26.848Z,23.70
2018-07-16T20:37:55.731Z,23.50
2018-07-16T20:40:24.563Z,23.30
2018-07-16T20:42:53.842Z,23.20
2018-07-16T20:45:23.169Z,23.10
2018-07-16T20:47:52.560Z,22.90
2018-07-16T20:50:27.191Z,22.80
2018-07-16T20:52:56.161Z,22.70
2018-07-16T20:55:26.108Z,22.80
2018-07-16T20:57:59.132Z,22.80
2018-07-16T21:00:28.352Z,22.70
2018-07-16T21:03:05.028Z,22.80
2018-07-16T21:05:34.046Z,22.70
2018-07-16T21:10:31.748Z,22.60
2018-07-16T21:15:29.097Z,22.60
2018-07-16T21:17:58.308Z,22.60
2018-07-16T21:20:27.125Z,22.70
2018-07-16T21:22:56.101Z,22.50
2018-07-16T21:25:25.034Z,22.50
2018-07-16T21:27:53.972Z,22.50
2018-07-16T21:30:26.342Z,22.60
2018-07-16T21:32:55.151Z,22.60
2018-07-16T21:35:24.124Z,22.60
2018-07-16T21:38:00.926Z,22.60
2018-07-16T21:40:31.051Z,22.60
2018-07-16T21:42:59.969Z,22.50
2018-07-16T21:45:30.050Z,22.40
2018-07-16T21:48:00.436Z,22.20
2018-07-16T21:50:36.328Z,22.10
2018-07-16T21:53:05.329Z,22.10
2018-07-16T21:55:34.204Z,22.10
2018-07-16T21:58:03.586Z,22.10
2018-07-16T22:00:32.482Z,22.10
2018-07-16T22:03:01.858Z,22.10
2018-07-16T22:05:44.118Z,22.00
2018-07-16T22:08:16.590Z,22.10
2018-07-16T22:10:47.564Z,21.90
2018-07-16T22:13:17.516Z,21.70
2018-07-16T22:15:48.866Z,21.60
2018-07-16T22:18:19.037Z,21.70
2018-07-16T22:20:54.539Z,21.70
2018-07-16T22:26:22.780Z,21.60
2018-07-16T22:28:52.023Z,21.40
2018-07-16T22:31:23.024Z,21.40
2018-07-16T22:33:52.468Z,21.30
2018-07-16T22:36:21.916Z,21.30
2018-07-16T22:38:54.048Z,21.30
2018-07-16T22:41:23.307Z,21.30
2018-07-16T22:43:52.143Z,21.30
2018-07-16T22:46:20.973Z,21.20
2018-07-16T22:48:50.181Z,21.20
2018-07-16T22:51:19.792Z,21.10
2018-07-16T22:53:49.313Z,21.00
2018-07-16T22:56:21.336Z,21.00
2018-07-16T22:58:50.919Z,20.90
2018-07-16T23:01:20.778Z,21.00
2018-07-16T23:03:51.564Z,20.90
2018-07-16T23:06:27.587Z,20.90
2018-07-16T23:08:57.879Z,20.90
2018-07-16T23:11:26.631Z,20.90
2018-07-16T23:14:03.012Z,20.90
2018-07-16T23:16:34.548Z,20.80
2018-07-16T23:19:07.587Z,20.80
2018-07-16T23:21:43.576Z,20.70
2018-07-16T23:24:25.864Z,20.70
2018-07-16T23:27:03.147Z,20.70
2018-07-16T23:29:32.435Z,20.70
2018-07-16T23:32:02.037Z,20.80
2018-07-16T23:34:31.343Z,20.70
2018-07-16T23:37:00.358Z,20.70
2018-07-16T23:39:29.494Z,20.70
2018-07-16T23:41:58.671Z,20.60
2018-07-16T23:46:59.217Z,20.70
2018-07-16T23:49:27.908Z,20.70
2018-07-16T23:51:57.203Z,20.80
2018-07-16T23:54:26.328Z,20.80
2018-07-16T23:56:55.277Z,20.80
2018-07-16T23:59:30.417Z,20.80
